Latest Coastal Weather Observations for Edithburgh

IDS60701

Issued at 5:11 pm CDT Wednesday 28 January 2015 (issued every 10 minutes, with the page automatically refreshed every 10 minutes)

About coastal observations | Map of coastal stations | Coastal observations for SA | Marine services | Other Formats
Station Details ID: 022046 Name: EDITHBURGH Lat: -35.11 Lon: 137.74 Height: 6.0 m
Data from the previous 72 hours. | See also: Recent months at Edithburgh
Date/Time
CDT
Temp

°C
Wind Pressure Rain
since 9am
mm
Weather Cloud Vis
km
Sea
Height
m
Swell
Dir
 
Speed
knots
Gust
knots
hPa Trend Height
m
Period
s
Dir
28/05:00pm 19.6 SSE 21 26 1017.0 - 0.0 - - - - - - -
28/04:30pm 20.0 SSE 20 26 1016.9 - 0.0 - - - - - - -
28/04:00pm 20.3 SSE 18 24 1017.3 - 0.0 - - - - - - -
28/03:30pm 20.0 SSE 18 23 1017.6 - 0.0 - - - - - - -
28/03:00pm 19.8 SSE 20 26 1017.6 - 0.0 - - - - - - -
28/02:30pm 20.1 SSE 20 26 1018.0 - 0.0 - - - - - - -
28/02:00pm 20.4 SSE 20 27 1018.1 - 0.0 - - - - - - -
28/01:30pm 20.4 SSE 18 22 1018.3 - 0.0 - - - - - - -
28/01:00pm 20.5 SE 16 21 1018.6 - 0.0 - - - - - - -
28/12:30pm 20.0 SE 15 20 1018.7 - 0.0 - - - - - - -
28/12:00pm 20.1 SE 16 21 1018.7 - 0.0 - - - - - - -
28/11:30am 19.5 SE 16 21 1018.9 - 0.0 - - - - - - -
28/11:00am 18.5 SE 17 23 1019.1 - 0.0 - - - - - - -
28/10:30am 17.5 SE 15 20 1019.2 - 0.0 - - - - - - -
28/10:00am 17.7 SE 17 21 1018.9 - 0.0 - - - - - - -
28/09:30am 17.0 SE 16 23 1019.0 - 0.0 - - - - - - -
28/09:00am 17.0 SE 17 21 1018.9 - 0.0 - - - - - - -
28/08:30am 16.6 SE 15 19 1018.7 - 0.0 - - - - - - -
28/08:00am 16.7 SE 16 21 1018.2 - 0.0 - - - - - - -
28/07:30am 16.4 SE 16 20 1018.0 - 0.0 - - - - - - -
28/07:00am 16.2 SE 13 17 1017.6 - 0.0 - - - - - - -
28/06:30am 16.3 ESE 14 19 1017.2 - 0.0 - - - - - - -
28/06:00am 16.4 ESE 12 20 1017.1 - 0.0 - - - - - - -
28/05:30am 16.5 SE 13 19 1016.8 - 0.0 - - - - - - -
28/05:00am 16.6 SE 14 18 1016.6 - 0.0 - - - - - - -
28/04:30am 16.4 SE 16 21 1016.4 - 0.0 - - - - - - -
28/04:00am 16.6 SE 16 20 1016.5 - 0.0 - - - - - - -
28/03:30am 16.7 SE 16 20 1016.7 - 0.0 - - - - - - -
28/03:00am 16.8 SE 15 20 1017.0 - 0.0 - - - - - - -
28/02:30am 16.6 SE 15 20 1017.2 - 0.0 - - - - - - -
28/02:00am 16.5 SE 16 22 1017.4 - 0.0 - - - - - - -
28/01:30am 16.5 SE 17 23 1017.8 - 0.0 - - - - - - -
28/01:00am 16.5 SE 18 24 1018.1 - 0.0 - - - - - - -
28/12:30am 16.6 SE 17 23 1018.4 - 0.0 - - - - - - -
28/12:00am 16.7 SE 17 23 1018.5 - 0.0 - - - - - - -
 
Date/Time
CDT
Temp

°C
Wind Pressure Rain
since 9am
mm
Weather Cloud Vis
km
Sea
Height
m
Swell
Dir
 
Speed
knots
Gust
knots
hPa Trend Height
m
Period
s
Dir
27/11:30pm 16.7 SSE 16 24 1018.5 - 0.0 - - - - - - -
27/11:00pm 16.4 SSE 16 21 1018.9 - 0.0 - - - - - - -
27/10:30pm 16.9 SSE 18 23 1018.8 - 0.0 - - - - - - -
27/10:00pm 16.8 SSE 17 24 1018.8 - 0.0 - - - - - - -
27/09:30pm 16.8 SSE 16 22 1018.7 - 0.0 - - - - - - -
27/09:00pm 16.8 SSE 17 23 1018.3 - 0.0 - - - - - - -
27/08:30pm 17.2 SSE 18 23 1017.9 - 0.0 - - - - - - -
27/08:00pm 17.3 SSE 17 21 1017.7 - 0.0 - - - - - - -
27/07:30pm 17.4 SSE 18 25 1017.6 - 0.0 - - - - - - -
27/07:00pm 17.4 SSE 18 25 1017.4 - 0.0 - - - - - - -
27/06:30pm 17.9 SSE 17 23 1017.3 - 0.0 - - - - - - -
27/06:00pm 18.2 SSE 16 23 1017.3 - 0.0 - - - - - - -
27/05:30pm 18.7 SSE 16 23 1017.4 - 0.0 - - - - - - -
27/05:00pm 18.9 SSE 16 21 1017.4 - 0.0 - - - - - - -
27/04:30pm 20.0 SSE 15 19 1017.3 - 0.0 - - - - - - -
27/04:00pm 20.6 SSE 14 18 1017.3 - 0.0 - - - - - - -
27/03:30pm 20.7 SSE 14 18 1017.3 - 0.0 - - - - - - -
27/03:00pm 20.9 SSE 14 18 1017.5 - 0.0 - - - - - - -
27/02:30pm 20.6 SSE 15 18 1017.7 - 0.0 - - - - - - -
27/02:00pm 21.1 SSE 15 18 1017.7 - 0.0 - - - - - - -
27/01:30pm 20.1 SSE 14 18 1018.0 - 0.0 - - - - - - -
27/01:00pm 19.7 SSE 13 17 1018.2 - 0.0 - - - - - - -
27/12:30pm 19.8 SSE 12 15 1018.4 - 0.0 - - - - - - -
27/12:00pm 19.9 SE 13 16 1018.6 - 0.0 - - - - - - -
27/11:30am 18.7 SE 9 13 1018.8 - 0.0 - - - - - - -
27/11:00am 17.9 ESE 11 14 1018.8 - 0.0 - - - - - - -
27/10:30am 18.7 ESE 9 12 1018.8 - 0.0 - - - - - - -
27/10:00am 17.8 ESE 9 12 1018.8 - 0.0 - - - - - - -
27/09:30am 17.9 SE 12 16 1018.9 - 0.0 - - - - - - -
27/09:00am 18.4 SE 11 14 1019.0 - 0.0 - - - - - - -
27/08:30am 17.8 SSE 12 16 1018.7 - 0.0 - - - - - - -
27/08:00am 17.2 SE 11 15 1018.6 - 0.0 - - - - - - -
27/07:30am 16.7 SE 11 15 1018.2 - 0.0 - - - - - - -
27/07:00am 16.4 SE 11 15 1018.1 - 0.0 - - - - - - -
27/06:30am 16.1 SE 11 16 1017.9 - 0.0 - - - - - - -
27/06:00am 16.2 SE 12 15 1017.6 - 0.0 - - - - - - -
27/05:30am 16.3 SSE 12 17 1017.4 - 0.0 - - - - - - -
27/05:00am 16.2 SE 11 15 1017.2 - 0.0 - - - - - - -
27/04:30am 16.1 SE 11 14 1017.1 - 0.0 - - - - - - -
27/04:00am 16.0 SE 12 16 1017.2 - 0.0 - - - - - - -
27/03:30am 16.2 SE 13 16 1017.2 - 0.0 - - - - - - -
27/03:00am 16.2 SSE 13 16 1017.3 - 0.0 - - - - - - -
27/02:30am 16.3 SE 13 17 1017.5 - 0.0 - - - - - - -
27/02:00am 16.1 SE 12 15 1017.7 - 0.0 - - - - - - -
27/01:30am 16.3 SSE 12 17 1018.0 - 0.0 - - - - - - -
27/01:00am 16.4 SSE 12 15 1018.3 - 0.0 - - - - - - -
27/12:30am 16.3 SSE 12 17 1018.5 - 0.0 - - - - - - -
27/12:00am 16.0 SSE 11 15 1018.6 - 0.0 - - - - - - -
 
Date/Time
CDT
Temp

°C
Wind Pressure Rain
since 9am
mm
Weather Cloud Vis
km
Sea
Height
m
Swell
Dir
 
Speed
knots
Gust
knots
hPa Trend Height
m
Period
s
Dir
26/11:30pm 16.0 SSE 12 16 1018.7 - 0.0 - - - - - - -
26/11:00pm 16.1 SSE 14 18 1018.8 - 0.0 - - - - - - -
26/10:30pm 16.2 SSE 14 18 1018.9 - 0.0 - - - - - - -
26/10:00pm 16.4 SSE 12 17 1018.8 - 0.0 - - - - - - -
26/09:30pm 16.8 SSE 14 18 1018.5 - 0.0 - - - - - - -
26/09:00pm 16.7 SSE 14 20 1018.4 - 0.0 - - - - - - -
26/08:30pm 16.7 SSE 14 19 1018.1 - 0.0 - - - - - - -
26/08:00pm 17.0 SSE 14 19 1018.0 - 0.0 - - - - - - -
26/07:30pm 17.6 SSE 15 21 1017.8 - 0.0 - - - - - - -
26/07:00pm 18.1 SSE 15 20 1017.6 - 0.0 - - - - - - -
26/06:30pm 18.1 SSE 14 20 1017.3 - 0.0 - - - - - - -
26/06:00pm 18.7 SSE 14 17 1017.4 - 0.0 - - - - - - -
26/05:30pm 18.9 SSE 12 16 1017.4 - 0.0 - - - - - - -
26/05:00pm 19.4 SSE 12 16 1017.6 - 0.0 - - - - - - -
26/04:30pm 19.6 SE 11 14 1017.4 - 0.0 - - - - - - -
26/04:00pm 19.8 SE 11 14 1017.5 - 0.0 - - - - - - -
26/03:30pm 19.8 SSE 11 14 1017.7 - 0.0 - - - - - - -
26/03:00pm 19.8 SSE 10 13 1017.8 - 0.0 - - - - - - -
26/02:30pm 19.4 SE 11 15 1017.9 - 0.0 - - - - - - -
26/02:00pm 19.0 SSE 11 16 1018.1 - 0.0 - - - - - - -
26/01:30pm 19.8 SSE 10 14 1018.2 - 0.0 - - - - - - -
26/01:00pm 19.5 SSE 9 12 1018.4 - 0.0 - - - - - - -
26/12:30pm 19.9 SSE 9 15 1018.4 - 0.0 - - - - - - -
26/12:00pm 19.6 SSE 10 15 1018.4 - 0.0 - - - - - - -
26/11:30am 19.1 S 11 15 1018.6 - 0.0 - - - - - - -
26/11:00am 18.3 SSE 12 16 1018.7 - 0.0 - - - - - - -
26/10:30am 18.6 SSE 11 16 1018.7 - 0.0 - - - - - - -
26/10:00am 18.5 SSE 10 14 1018.8 - 0.0 - - - - - - -
26/09:30am 18.0 SSE 11 15 1018.8 - 0.0 - - - - - - -
26/09:00am 17.5 SSE 10 13 1018.8 - 0.0 - - - - - - -
26/08:30am 17.0 S 9 12 1018.7 - 0.0 - - - - - - -
26/08:00am 16.8 S 8 11 1018.2 - 0.0 - - - - - - -
26/07:30am 16.5 S 9 13 1018.1 - 0.0 - - - - - - -
26/07:00am 16.4 SSW 9 13 1017.7 - 0.0 - - - - - - -
26/06:30am 16.3 S 7 10 1017.4 - 0.0 - - - - - - -
26/06:00am 16.2 S 9 12 1017.2 - 0.0 - - - - - - -
26/05:30am 16.1 S 9 13 1017.0 - 0.0 - - - - - - -
26/05:00am 16.1 S 9 12 1016.5 - 0.0 - - - - - - -
26/04:30am 16.0 S 7 11 1016.4 - 0.0 - - - - - - -
26/04:00am 16.0 SSW 6 8 1016.4 - 0.0 - - - - - - -
26/03:30am 16.0 S 6 9 1016.3 - 0.0 - - - - - - -
26/03:00am 16.1 SSW 9 11 1016.2 - 0.0 - - - - - - -
26/02:30am 15.7 SSW 11 15 1016.3 - 0.0 - - - - - - -
26/02:00am 15.4 SSW 14 17 1016.3 - 0.0 - - - - - - -
26/01:30am 16.0 SSW 8 12 1016.4 - 0.0 - - - - - - -
26/01:00am 16.2 SSW 9 13 1016.7 - 0.0 - - - - - - -
26/12:30am 16.2 S 9 13 1016.9 - 0.0 - - - - - - -
26/12:00am 16.2 S 11 15 1016.9 - 0.0 - - - - - - -
 
Date/Time
CDT
Temp

°C
Wind Pressure Rain
since 9am
mm
Weather Cloud Vis
km
Sea
Height
m
Swell
Dir
 
Speed
knots
Gust
knots
hPa Trend Height
m
Period
s
Dir
25/11:30pm 16.4 SSW 10 15 1016.9 - 0.0 - - - - - - -
25/11:00pm 16.4 S 10 15 1016.9 - 0.0 - - - - - - -
25/10:30pm 16.7 SSW 13 16 1016.6 - 0.0 - - - - - - -
25/10:00pm 16.9 S 12 15 1016.3 - 0.0 - - - - - - -
25/09:30pm 17.1 S 11 16 1016.1 - 0.0 - - - - - - -
25/09:00pm 17.2 SSW 14 20 1015.7 - 0.0 - - - - - - -
25/08:30pm 17.5 S 12 16 1015.5 - 0.0 - - - - - - -
25/08:00pm 17.9 SSW 14 19 1015.2 - 0.0 - - - - - - -
25/07:30pm 18.3 S 14 21 1014.8 - 0.0 - - - - - - -
25/07:00pm 18.6 S 13 17 1014.7 - 0.0 - - - - - - -
25/06:30pm 20.1 SW 14 20 1014.4 - 0.0 - - - - - - -
25/06:00pm 20.4 SW 14 21 1014.3 - 0.0 - - - - - - -
25/05:30pm 20.4 SW 16 21 1014.2 - 0.0 - - - - - - -

Other Formats:

Comma delimited format used in spreadsheet applications
http://www.bom.gov.au/fwo/IDS60701/IDS60701.94809.axf

JavaScript Object Notation format (JSON) in row-major order
http://www.bom.gov.au/fwo/IDS60701/IDS60701.94809.json